Miller Richmond — CFH8165 — position and weather

sailwx.info

Track history (hours):
 
Tides and Currents Weather Stations Pressure Air Temp Water Temp Dewpoint Dewpoint Depression Visibility Wind Speed Wind Dir Waves Ship Positions

Miller Richmond

Last reported at 2017-Dec-17 13:30 UTC. Time now 2017-Dec-17 13:54 UTC.
Position N 49°12' W 123°04'.

Length 20 m; draft 1.5 m.

Type: . MMSI: 316011603.

Date/timePositionNaut miles runAvg speedWind from/ knotsBaromVisibWave heightAir tempDewpointWater temp
2017-Dec-17 13:30N 49°12' W 123°04'0 0.0
2017-Dec-17 13:00N 49°12' W 123°04'0 0.0
2017-Dec-17 12:30N 49°12' W 123°04'0 0.0
2017-Dec-17 12:00N 49°12' W 123°04'0 0.0
2017-Dec-17 11:30N 49°12' W 123°04'0 0.0
2017-Dec-17 11:00N 49°12' W 123°04'0 0.0
2017-Dec-17 10:30N 49°12' W 123°04'0 0.0
2017-Dec-17 10:00N 49°12' W 123°04'0 0.0
2017-Dec-17 09:30N 49°12' W 123°04'0 0.0
2017-Dec-17 09:00N 49°12' W 123°04'0 0.0
2017-Dec-17 08:30N 49°12' W 123°04'0 0.0
2017-Dec-17 08:00N 49°12' W 123°04'0 0.0
2017-Dec-17 07:30N 49°12' W 123°04'0 0.0
2017-Dec-17 07:00N 49°12' W 123°04'0 0.0
2017-Dec-17 06:30N 49°12' W 123°04'0 0.0
2017-Dec-17 06:00N 49°12' W 123°04'0 0.0
2017-Dec-17 05:30N 49°12' W 123°04'0 0.0
2017-Dec-17 05:00N 49°12' W 123°04'0 0.0
2017-Dec-17 04:30N 49°12' W 123°04'0 0.0
2017-Dec-17 04:00N 49°12' W 123°04'0 0.0
2017-Dec-17 03:30N 49°12' W 123°04'0 0.0
2017-Dec-17 03:00N 49°12' W 123°04'0 0.0
2017-Dec-17 02:30N 49°12' W 123°04'0 0.0
2017-Dec-17 02:00N 49°12' W 123°04'0 0.0
2017-Dec-17 01:30N 49°12' W 123°04'0 0.0
2017-Dec-17 01:00N 49°12' W 123°04'0 0.0
2017-Dec-17 00:30N 49°12' W 123°04'0 0.0
2017-Dec-17 00:00N 49°12' W 123°04'0 0.0
2017-Dec-16 23:30N 49°12' W 123°04'0 0.0
2017-Dec-16 23:00N 49°12' W 123°04'0 0.0
2017-Dec-16 22:30N 49°12' W 123°04'0 0.0
2017-Dec-16 22:00N 49°12' W 123°04'0 0.0
2017-Dec-16 21:30N 49°12' W 123°04'0 0.0
2017-Dec-16 19:06N 49°12' W 123°04'0 0.0
2017-Dec-16 19:00N 49°12' W 123°04'0 0.0
2017-Dec-16 18:30N 49°12' W 123°04'0 0.0
2017-Dec-16 18:00N 49°12' W 123°04'0 0.0
2017-Dec-16 17:30N 49°12' W 123°04'0 0.0
2017-Dec-16 17:00N 49°12' W 123°04'0 0.0
2017-Dec-16 16:30N 49°12' W 123°04'0 0.0
2017-Dec-16 16:00N 49°12' W 123°04'0 0.0
2017-Dec-16 15:30N 49°12' W 123°04'0 0.0
2017-Dec-16 15:00N 49°12' W 123°04'0 0.0
2017-Dec-16 14:30N 49°12' W 123°04'0 0.0
2017-Dec-16 14:00N 49°12' W 123°04'0 0.0
2017-Dec-16 13:30N 49°12' W 123°04'0 0.0
2017-Dec-16 13:00N 49°12' W 123°04'0 0.0
2017-Dec-16 12:30N 49°12' W 123°04'0 0.0
2017-Dec-16 12:00N 49°12' W 123°04'0 0.0
2017-Dec-16 11:30N 49°12' W 123°04'0 0.0
2017-Dec-16 11:00N 49°12' W 123°04'0 0.0
2017-Dec-16 10:30N 49°12' W 123°04'0 0.0
2017-Dec-16 10:00N 49°12' W 123°04'0 0.0
2017-Dec-16 09:30N 49°12' W 123°04'0 0.0
2017-Dec-16 09:00N 49°12' W 123°04'0 0.0
2017-Dec-16 08:30N 49°12' W 123°04'0 0.0
2017-Dec-16 08:00N 49°12' W 123°04'0 0.0
2017-Dec-16 07:30N 49°12' W 123°04'0 0.0
2017-Dec-16 07:00N 49°12' W 123°04'0 0.0
2017-Dec-16 06:30N 49°12' W 123°04'0 0.0
2017-Dec-16 06:00N 49°12' W 123°04'0 0.0
2017-Dec-16 05:30N 49°12' W 123°04'0 0.2
2017-Dec-16 05:00N 49°12' W 123°04'0 0.0
2017-Dec-16 04:30N 49°12' W 123°04'1 2.2
2017-Dec-16 04:00N 49°12' W 123°06'3 5.3
2017-Dec-16 03:30N 49°13' W 123°09'3 6.0
2017-Dec-16 03:00N 49°14' W 123°14'3 6.5
2017-Dec-16 02:30N 49°16' W 123°18'4 7.4
2017-Dec-16 02:00N 49°17' W 123°23'4 8.4
2017-Dec-16 01:30N 49°19' W 123°29'26 9.0
2017-Dec-15 22:33N 49°33' W 124°03'1 8.7
2017-Dec-15 22:29N 49°34' W 124°04'4 8.7
2017-Dec-15 22:00N 49°37' W 124°09'5 8.9
2017-Dec-15 21:28N 49°40' W 124°14'4 8.8
2017-Dec-15 21:00N 49°42' W 124°19'4 8.4
2017-Dec-15 20:30N 49°44' W 124°25'4 8.4
2017-Dec-15 20:00N 49°47' W 124°30'4 8.4
2017-Dec-15 19:30N 49°51' W 124°33'2 3.0
2017-Dec-15 18:59N 49°52' W 124°33'0 0.0
2017-Dec-15 18:30N 49°52' W 124°33'0 0.0
2017-Dec-15 17:59N 49°52' W 124°33'0 0.0
2017-Dec-15 17:30N 49°52' W 124°33'0 0.0
2017-Dec-15 17:00N 49°52' W 124°33'0 0.0
2017-Dec-15 16:30N 49°52' W 124°33'0 0.0
2017-Dec-15 16:00N 49°52' W 124°33'0 0.0
2017-Dec-15 15:30N 49°52' W 124°33'0 0.0
2017-Dec-15 15:00N 49°52' W 124°33'0 0.0
2017-Dec-15 14:27N 49°52' W 124°33'0 0.0
2017-Dec-15 14:00N 49°52' W 124°33'0 0.0
2017-Dec-15 13:30N 49°52' W 124°33'0 0.1
2017-Dec-15 13:00N 49°52' W 124°33'2 4.5
2017-Dec-15 12:30N 49°50' W 124°33'3 5.5
2017-Dec-15 12:00N 49°47' W 124°31'3 6.6
2017-Dec-15 11:30N 49°46' W 124°27'3 6.6
2017-Dec-15 11:00N 49°44' W 124°22'4 7.1
2017-Dec-15 10:29N 49°42' W 124°18'4 7.4
2017-Dec-15 10:00N 49°39' W 124°14'4 7.8
2017-Dec-15 09:30N 49°36' W 124°11'4 7.8
2017-Dec-15 09:00N 49°33' W 124°07'4 7.7
2017-Dec-15 08:26N 49°30' W 124°03'14 7.8
2017-Dec-15 06:39N 49°23' W 123°43'1 7.8
2017-Dec-15 06:30N 49°23' W 123°42'4 7.7
2017-Dec-15 05:59N 49°21' W 123°36'4 8.0
2017-Dec-15 05:30N 49°19' W 123°31'4 8.1
2017-Dec-15 05:00N 49°18' W 123°25'4 8.1
2017-Dec-15 04:30N 49°16' W 123°19'4 8.9
2017-Dec-15 04:00N 49°14' W 123°14'7 4.4
2017-Dec-15 02:30N 49°12' W 123°04'0 0.0
2017-Dec-15 01:00N 49°12' W 123°04'0 0.0
2017-Dec-15 00:30N 49°12' W 123°04'0 0.0
2017-Dec-14 18:30N 49°12' W 123°04'0 0.0
2017-Dec-14 18:00N 49°12' W 123°04'0 0.0
2017-Dec-14 17:30N 49°12' W 123°04'2 4.0
2017-Dec-14 17:00N 49°12' W 123°07'3 6.7
2017-Dec-14 16:30N 49°13' W 123°12'4 7.4
2017-Dec-14 16:00N 49°15' W 123°16'8 8.2
2017-Dec-14 15:00N 49°20' W 123°26'4 8.5
2017-Dec-14 14:29N 49°25' W 123°26'4 8.3
2017-Dec-14 14:00N 49°28' W 123°28'2 3.5
2017-Dec-14 13:25N 49°30' W 123°30'0 0.0
2017-Dec-14 13:00N 49°30' W 123°30'0 0.0
2017-Dec-14 12:30N 49°30' W 123°30'0 0.0
2017-Dec-14 11:59N 49°30' W 123°30'0 0.0
2017-Dec-14 11:30N 49°30' W 123°30'0 0.0
2017-Dec-14 11:00N 49°30' W 123°30'2 4.7
2017-Dec-14 10:30N 49°28' W 123°28'4 7.9
2017-Dec-14 10:00N 49°24' W 123°26'4 8.1
2017-Dec-14 09:30N 49°20' W 123°26'4 8.9
2017-Dec-14 09:00N 49°18' W 123°21'4 8.2
2017-Dec-14 08:30N 49°15' W 123°16'4 7.2
2017-Dec-14 08:00N 49°13' W 123°11'4 7.2
2017-Dec-14 07:30N 49°12' W 123°06'2 3.0
2017-Dec-14 07:00N 49°12' W 123°04'0 0.0
2017-Dec-14 06:30N 49°12' W 123°04'0 0.1
2017-Dec-14 06:00N 49°12' W 123°04'0 0.1
2017-Dec-14 05:30N 49°12' W 123°04'0 0.0
2017-Dec-14 05:00N 49°12' W 123°04'0 0.0
2017-Dec-14 04:30N 49°12' W 123°04'0 0.0
2017-Dec-14 04:00N 49°12' W 123°04'0 0.0
2017-Dec-14 03:30N 49°12' W 123°04'2 3.2
2017-Dec-14 03:00N 49°12' W 123°06'2 5.1
2017-Dec-14 02:30N 49°13' W 123°10'3 5.8
2017-Dec-14 02:00N 49°14' W 123°14'3 5.9
2017-Dec-14 01:30N 49°16' W 123°18'4 7.8
2017-Dec-14 01:00N 49°17' W 123°23'4 8.7
2017-Dec-14 00:30N 49°18' W 123°30'5 9.1
2017-Dec-13 23:56N 49°21' W 123°37'4 9.2
2017-Dec-13 23:30N 49°22' W 123°42'17 8.8
2017-Dec-13 21:34N 49°31' W 124°05'1 9.3
2017-Dec-13 21:29N 49°31' W 124°06'4 9.2
2017-Dec-13 21:00N 49°35' W 124°10'4 8.9
2017-Dec-13 20:30N 49°38' W 124°14'4 8.7
2017-Dec-13 20:00N 49°41' W 124°19'4 8.3
2017-Dec-13 19:30N 49°44' W 124°24'4 8.4
2017-Dec-13 19:00N 49°47' W 124°29'4 8.1
2017-Dec-13 18:30N 49°50' W 124°32'2 3.1
2017-Dec-13 17:46N 49°52' W 124°33'0 0.0
2017-Dec-13 17:30N 49°52' W 124°33'0 0.0
2017-Dec-13 17:00N 49°52' W 124°33'0 0.0
2017-Dec-13 16:30N 49°52' W 124°33'0 0.0
2017-Dec-13 16:00N 49°52' W 124°33'0 0.0
2017-Dec-13 15:30N 49°52' W 124°33'0 0.0
2017-Dec-13 14:10N 49°52' W 124°33'0 0.0
2017-Dec-13 13:55N 49°52' W 124°33'2 3.9
2017-Dec-13 13:30N 49°50' W 124°33'4 8.1
2017-Dec-13 13:00N 49°47' W 124°30'4 8.4
2017-Dec-13 12:30N 49°45' W 124°24'4 8.4
2017-Dec-13 12:00N 49°43' W 124°19'4 8.1
2017-Dec-13 11:30N 49°40' W 124°14'4 8.5
2017-Dec-13 11:00N 49°36' W 124°11'4 8.3
2017-Dec-13 10:30N 49°33' W 124°07'20 8.3
2017-Dec-13 08:07N 49°22' W 123°40'1 8.4
2017-Dec-13 07:59N 49°22' W 123°39'4 8.4
2017-Dec-13 07:29N 49°20' W 123°33'4 8.5
2017-Dec-13 07:00N 49°19' W 123°27'4 8.6
2017-Dec-13 06:29N 49°17' W 123°21'4 7.9
2017-Dec-13 05:59N 49°15' W 123°16'3 7.1
2017-Dec-13 05:31N 49°13' W 123°12'4 8.2
2017-Dec-13 05:00N 49°12' W 123°05'1 2.1
2017-Dec-13 04:30N 49°12' W 123°04'0 0.4
2017-Dec-13 04:00N 49°12' W 123°04'0 0.5
2017-Dec-13 03:30N 49°12' W 123°04'3 5.7
2017-Dec-13 03:00N 49°12' W 123°08'3 5.4
2017-Dec-13 02:30N 49°13' W 123°12'3 5.4
2017-Dec-13 02:00N 49°15' W 123°15'3 5.3
2017-Dec-13 01:30N 49°16' W 123°19'4 8.6
2017-Dec-13 01:00N 49°18' W 123°25'4 8.7
2017-Dec-13 00:30N 49°19' W 123°31'5 8.8
2017-Dec-12 23:59N 49°21' W 123°38'19 8.4
2017-Dec-12 21:41N 49°31' W 124°03'2 8.5
2017-Dec-12 21:27N 49°32' W 124°06'5 8.3
2017-Dec-12 20:54N 49°36' W 124°10'3 8.3
2017-Dec-12 20:30N 49°38' W 124°13'4 8.4
2017-Dec-12 20:00N 49°41' W 124°18'4 8.1
2017-Dec-12 19:30N 49°44' W 124°23'4 7.7
2017-Dec-12 19:00N 49°46' W 124°28'4 7.9
2017-Dec-12 18:30N 49°49' W 124°33'4 7.1
2017-Dec-12 18:00N 49°52' W 124°33'0 0.0
2017-Dec-12 17:30N 49°52' W 124°33'0 0.0
2017-Dec-12 17:00N 49°52' W 124°33'0 0.0
2017-Dec-12 16:30N 49°52' W 124°33'0 0.0
2017-Dec-12 16:00N 49°52' W 124°33'0 0.0
2017-Dec-12 15:30N 49°52' W 124°33'0 0.0
2017-Dec-12 15:00N 49°52' W 124°33'0 0.0
2017-Dec-12 14:30N 49°52' W 124°33'0 0.0
2017-Dec-12 14:00N 49°52' W 124°33'2 4.3
2017-Dec-12 13:30N 49°50' W 124°33'4 7.5
2017-Dec-12 13:00N 49°47' W 124°29'4 8.4
2017-Dec-12 12:30N 49°45' W 124°24'4 8.5
2017-Dec-12 12:00N 49°42' W 124°19'4 8.1
2017-Dec-12 11:30N 49°39' W 124°15'4 8.3
2017-Dec-12 11:00N 49°36' W 124°10'4 8.4
2017-Dec-12 10:29N 49°33' W 124°06'16 8.2
2017-Dec-12 08:31N 49°24' W 123°45'0 8.4
2017-Dec-12 08:28N 49°23' W 123°45'4 8.1
2017-Dec-12 08:00N 49°22' W 123°39'4 8.2
2017-Dec-12 07:30N 49°20' W 123°33'4 8.4
2017-Dec-12 07:00N 49°18' W 123°28'4 8.6
2017-Dec-12 06:30N 49°17' W 123°22'4 7.9
2017-Dec-12 06:00N 49°15' W 123°16'4 7.3
2017-Dec-12 05:30N 49°13' W 123°11'4 7.1
2017-Dec-12 05:00N 49°12' W 123°06'2 3.1
2017-Dec-12 04:30N 49°12' W 123°04'0 0.0
2017-Dec-12 04:00N 49°12' W 123°04'0 0.3
2017-Dec-12 03:30N 49°12' W 123°04'0 0.3
2017-Dec-12 03:00N 49°12' W 123°04'0 0.0
2017-Dec-12 02:30N 49°12' W 123°04'0 0.2
2017-Dec-12 02:00N 49°12' W 123°04'0 0.0
2017-Dec-12 01:30N 49°12' W 123°04'0 0.0
2017-Dec-12 01:00N 49°12' W 123°04'0 0.0
2017-Dec-12 00:30N 49°12' W 123°04'0 0.0
2017-Dec-12 00:00N 49°12' W 123°04'0 0.0
2017-Dec-11 23:30N 49°12' W 123°04'0 0.0
2017-Dec-11 23:00N 49°12' W 123°04'0 0.0
2017-Dec-11 22:30N 49°12' W 123°04'0 0.0
2017-Dec-11 22:00N 49°12' W 123°04'0 0.0
2017-Dec-11 21:30N 49°12' W 123°04'0 0.0
2017-Dec-11 21:00N 49°12' W 123°04'0 0.0
2017-Dec-11 20:30N 49°12' W 123°04'0 0.0
2017-Dec-11 20:00N 49°12' W 123°04'0 0.0
2017-Dec-11 19:30N 49°12' W 123°04'0 0.0
2017-Dec-11 19:00N 49°12' W 123°04'0 0.0
2017-Dec-11 18:30N 49°12' W 123°04'0 0.0
2017-Dec-11 18:00N 49°12' W 123°04'0 0.0
2017-Dec-11 17:30N 49°12' W 123°04'0 0.0
2017-Dec-11 17:00N 49°12' W 123°04'0 0.0
2017-Dec-11 16:30N 49°12' W 123°04'0 0.0
2017-Dec-11 16:00N 49°12' W 123°04'0 0.0
2017-Dec-11 15:30N 49°12' W 123°04'0 0.0
2017-Dec-11 15:00N 49°12' W 123°04'0 0.0
2017-Dec-11 14:30N 49°12' W 123°04'0 0.0
2017-Dec-11 14:00N 49°12' W 123°04'0 0.0
2017-Dec-11 13:30N 49°12' W 123°04'0 0.0
2017-Dec-11 13:00N 49°12' W 123°04'0 0.0
2017-Dec-11 12:30N 49°12' W 123°04'0 0.0
2017-Dec-11 12:00N 49°12' W 123°04'0 0.0
2017-Dec-11 11:30N 49°12' W 123°04'0 0.0
2017-Dec-11 11:00N 49°12' W 123°04'0 0.0
2017-Dec-11 10:30N 49°12' W 123°04'0 0.0
2017-Dec-11 10:00N 49°12' W 123°04'0 0.0
2017-Dec-11 09:30N 49°12' W 123°04'0 0.0
2017-Dec-11 09:00N 49°12' W 123°04'0 0.0
2017-Dec-11 08:30N 49°12' W 123°04'0 0.0
2017-Dec-11 08:00N 49°12' W 123°04'0 0.0
2017-Dec-11 07:30N 49°12' W 123°04'0 0.0
2017-Dec-11 07:00N 49°12' W 123°04'0 0.0
2017-Dec-11 06:30N 49°12' W 123°04'0 0.0
2017-Dec-11 06:00N 49°12' W 123°04'0 0.0
2017-Dec-11 05:30N 49°12' W 123°04'0 0.0
2017-Dec-11 05:00N 49°12' W 123°04'0 0.0
2017-Dec-11 04:30N 49°12' W 123°04'0 0.0
2017-Dec-11 04:00N 49°12' W 123°04'0 0.0
2017-Dec-11 03:30N 49°12' W 123°04'0 0.0
2017-Dec-11 03:00N 49°12' W 123°04'0 0.0
2017-Dec-11 02:30N 49°12' W 123°04'0 0.0
2017-Dec-11 02:00N 49°12' W 123°04'0 0.0
2017-Dec-11 01:30N 49°12' W 123°04'0 0.0
2017-Dec-11 01:00N 49°12' W 123°04'0 0.0
2017-Dec-11 00:30N 49°12' W 123°04'0 0.0
2017-Dec-11 00:00N 49°12' W 123°04'0 0.0
2017-Dec-10 23:30N 49°12' W 123°04'0 0.0
2017-Dec-10 23:00N 49°12' W 123°04'0 0.0
2017-Dec-10 22:30N 49°12' W 123°04'0 0.0
2017-Dec-10 22:00N 49°12' W 123°04'0 0.0
2017-Dec-10 21:30N 49°12' W 123°04'0 0.0
2017-Dec-10 21:00N 49°12' W 123°04'0 0.0
2017-Dec-10 20:30N 49°12' W 123°04'0 0.0
2017-Dec-10 20:00N 49°12' W 123°04'0 0.0
2017-Dec-10 19:30N 49°12' W 123°04'0 0.0
2017-Dec-10 19:00N 49°12' W 123°04'0 0.0
2017-Dec-10 18:30N 49°12' W 123°04'0 0.0
2017-Dec-10 18:00N 49°12' W 123°04'0 0.0
2017-Dec-10 17:30N 49°12' W 123°04'0 0.0
2017-Dec-10 17:00N 49°12' W 123°04'0 0.0
2017-Dec-10 16:30N 49°12' W 123°04'0 0.0
2017-Dec-10 16:00N 49°12' W 123°04'0 0.0
2017-Dec-10 15:30N 49°12' W 123°04'0 0.0
2017-Dec-10 15:00N 49°12' W 123°04'0 0.0
2017-Dec-10 14:30N 49°12' W 123°04'0 0.0
2017-Dec-10 14:00N 49°12' W 123°04'0 0.0
2017-Dec-10 13:30N 49°12' W 123°04'0 0.0
2017-Dec-10 13:00N 49°12' W 123°04'0 0.0
2017-Dec-10 12:30N 49°12' W 123°04'0 0.0
2017-Dec-10 12:00N 49°12' W 123°04'0 0.0
2017-Dec-10 11:30N 49°12' W 123°04'0 0.0
2017-Dec-10 11:00N 49°12' W 123°04'0 0.0
2017-Dec-10 10:30N 49°12' W 123°04'0 0.0
2017-Dec-10 10:00N 49°12' W 123°04'0 0.0
2017-Dec-10 09:30N 49°12' W 123°04'0 0.0
2017-Dec-10 09:00N 49°12' W 123°04'0 0.0
2017-Dec-10 08:30N 49°12' W 123°04'0 0.0
2017-Dec-10 08:00N 49°12' W 123°04'0 0.0
2017-Dec-10 07:30N 49°12' W 123°04'0 0.0
2017-Dec-10 07:00N 49°12' W 123°04'0 0.0
2017-Dec-10 06:30N 49°12' W 123°04'0 0.0
2017-Dec-10 06:00N 49°12' W 123°04'0 0.0
2017-Dec-10 05:30N 49°12' W 123°04'0 0.0
2017-Dec-10 05:00N 49°12' W 123°04'0 0.0
2017-Dec-10 04:30N 49°12' W 123°04'0 0.0
2017-Dec-10 04:00N 49°12' W 123°04'0 0.0
2017-Dec-10 03:30N 49°12' W 123°04'0 0.0
2017-Dec-10 03:00N 49°12' W 123°04'0 0.0
2017-Dec-10 02:30N 49°12' W 123°04'0 0.0
2017-Dec-10 02:00N 49°12' W 123°04'0 0.0
2017-Dec-10 01:30N 49°12' W 123°04'0 0.0
2017-Dec-10 01:00N 49°12' W 123°04'0 0.0
2017-Dec-10 00:30N 49°12' W 123°04'0 0.0
2017-Dec-10 00:00N 49°12' W 123°04'0 0.0
2017-Dec-09 23:30N 49°12' W 123°04'0 0.0
2017-Dec-09 23:00N 49°12' W 123°04'0 0.0
2017-Dec-09 22:30N 49°12' W 123°04'0 0.0
2017-Dec-09 22:00N 49°12' W 123°04'0 0.0
2017-Dec-09 21:30N 49°12' W 123°04'0 0.0
2017-Dec-09 21:00N 49°12' W 123°04'0 0.0
2017-Dec-09 20:30N 49°12' W 123°04'0 0.0
2017-Dec-09 20:00N 49°12' W 123°04'0 0.0
2017-Dec-09 19:30N 49°12' W 123°04'0 0.0
2017-Dec-09 19:00N 49°12' W 123°04'0 0.0
2017-Dec-09 18:30N 49°12' W 123°04'0 0.0
2017-Dec-09 18:00N 49°12' W 123°04'0 0.0
2017-Dec-09 17:30N 49°12' W 123°04'0 0.0
2017-Dec-09 17:00N 49°12' W 123°04'0 0.0
2017-Dec-09 16:30N 49°12' W 123°04'0 0.0
2017-Dec-09 16:00N 49°12' W 123°04'0 0.0
2017-Dec-09 15:30N 49°12' W 123°04'0 0.0
2017-Dec-09 15:00N 49°12' W 123°04'0 0.0
2017-Dec-09 14:30N 49°12' W 123°04'0 0.0
2017-Dec-09 14:00N 49°12' W 123°04'0 0.0
2017-Dec-09 13:30N 49°12' W 123°04'0 0.0
2017-Dec-09 13:00N 49°12' W 123°04'0 0.0
2017-Dec-09 12:30N 49°12' W 123°04'0 0.0
2017-Dec-09 12:00N 49°12' W 123°04'0 0.0
2017-Dec-09 11:30N 49°12' W 123°04'0 0.0
2017-Dec-09 11:00N 49°12' W 123°04'0 0.0
2017-Dec-09 10:30N 49°12' W 123°04'0 0.0
2017-Dec-09 10:00N 49°12' W 123°04'0 0.0
2017-Dec-09 09:30N 49°12' W 123°04'0 0.0
2017-Dec-09 09:00N 49°12' W 123°04'0 0.0
2017-Dec-09 08:30N 49°12' W 123°04'0 0.0
2017-Dec-09 08:00N 49°12' W 123°04'0 0.0
2017-Dec-09 07:30N 49°12' W 123°04'0 0.0
2017-Dec-09 07:00N 49°12' W 123°04'0 0.0
2017-Dec-09 06:30N 49°12' W 123°04'0 0.0
2017-Dec-09 06:00N 49°12' W 123°04'0 0.0
2017-Dec-09 05:30N 49°12' W 123°04'0 0.0
2017-Dec-09 05:00N 49°12' W 123°04'0 0.0
2017-Dec-09 04:30N 49°12' W 123°04'0 0.0
2017-Dec-09 04:00N 49°12' W 123°04'0 0.0
2017-Dec-09 03:30N 49°12' W 123°04'0 0.0
2017-Dec-09 03:00N 49°12' W 123°04'0 0.0
2017-Dec-09 02:30N 49°12' W 123°04'0 0.0
2017-Dec-09 02:00N 49°12' W 123°04'0 0.0
2017-Dec-09 01:30N 49°12' W 123°04'0 0.0
2017-Dec-09 01:00N 49°12' W 123°04'0 0.0
2017-Dec-09 00:30N 49°12' W 123°04'0 0.0
2017-Dec-09 00:00N 49°12' W 123°04'0 0.0
2017-Dec-08 23:30N 49°12' W 123°04'0 0.0
2017-Dec-08 23:00N 49°12' W 123°04'0 0.0
2017-Dec-08 22:30N 49°12' W 123°04'0 0.0
2017-Dec-08 22:00N 49°12' W 123°04'0 0.0
2017-Dec-08 21:30N 49°12' W 123°04'0 0.0
2017-Dec-08 21:00N 49°12' W 123°04'0 0.0
2017-Dec-08 20:30N 49°12' W 123°04'0 0.0
2017-Dec-08 20:00N 49°12' W 123°04'0 0.0
2017-Dec-08 19:30N 49°12' W 123°04'0 0.0
2017-Dec-08 19:00N 49°12' W 123°04'0 0.0
2017-Dec-08 18:30N 49°12' W 123°04'0 0.0
2017-Dec-08 18:00N 49°12' W 123°04'0 0.0
2017-Dec-08 16:52N 49°12' W 123°04'0 0.0
2017-Dec-08 16:30N 49°12' W 123°04'0 0.0
2017-Dec-08 16:00N 49°12' W 123°04'0 0.0
2017-Dec-08 15:30N 49°12' W 123°04'0 0.0
2017-Dec-08 15:00N 49°12' W 123°04'0 0.0
2017-Dec-08 14:30N 49°12' W 123°04'0 0.0
2017-Dec-08 14:00N 49°12' W 123°04'0 0.0
2017-Dec-08 13:30N 49°12' W 123°04'0 0.0
2017-Dec-08 13:00N 49°12' W 123°04'0 0.0
2017-Dec-08 12:30N 49°12' W 123°04'0 0.0
2017-Dec-08 12:00N 49°12' W 123°04'0 0.0
2017-Dec-08 11:30N 49°12' W 123°04'0 0.0
2017-Dec-08 11:00N 49°12' W 123°04'0 0.0
2017-Dec-08 10:30N 49°12' W 123°04'0 0.0
2017-Dec-08 10:00N 49°12' W 123°04'0 0.0
2017-Dec-08 09:30N 49°12' W 123°04'0 0.0
2017-Dec-08 09:00N 49°12' W 123°04'0 0.0
2017-Dec-08 08:30N 49°12' W 123°04'0 0.0
2017-Dec-08 08:00N 49°12' W 123°04'0 0.0
2017-Dec-08 07:30N 49°12' W 123°04'0 0.0
2017-Dec-08 07:00N 49°12' W 123°04'0 0.0
2017-Dec-08 06:30N 49°12' W 123°04'0 0.0
2017-Dec-08 06:00N 49°12' W 123°04'0 0.0
2017-Dec-08 05:30N 49°12' W 123°04'0 0.0
2017-Dec-08 05:00N 49°12' W 123°04'0 0.0
2017-Dec-08 04:30N 49°12' W 123°04'0 0.0
2017-Dec-08 04:00N 49°12' W 123°04'0 0.0
2017-Dec-08 03:30N 49°12' W 123°04'0 0.0
2017-Dec-08 03:00N 49°12' W 123°04'0 0.0
2017-Dec-08 02:30N 49°12' W 123°04'0 0.0
2017-Dec-08 02:00N 49°12' W 123°04'0 0.0
2017-Dec-08 01:30N 49°12' W 123°04'0 0.0
2017-Dec-08 01:00N 49°12' W 123°04'0 0.0
2017-Dec-08 00:30N 49°12' W 123°04'0 0.0
2017-Dec-08 00:00N 49°12' W 123°04'0 0.0
2017-Dec-07 23:30N 49°12' W 123°04'0 0.0
2017-Dec-07 23:00N 49°12' W 123°04'0 0.0
2017-Dec-07 22:30N 49°12' W 123°04'0 0.0
2017-Dec-07 22:00N 49°12' W 123°04'0 0.0
2017-Dec-07 21:30N 49°12' W 123°04'0 0.0
2017-Dec-07 21:00N 49°12' W 123°04'0 0.0
2017-Dec-07 20:30N 49°12' W 123°04'0 0.0
2017-Dec-07 20:00N 49°12' W 123°04'0 0.0
2017-Dec-07 19:30N 49°12' W 123°04'0 0.0
2017-Dec-07 19:00N 49°12' W 123°04'0 0.0
2017-Dec-07 18:30N 49°12' W 123°04'0 0.0
2017-Dec-07 18:00N 49°12' W 123°04'0 0.0
2017-Dec-07 17:30N 49°12' W 123°04'0 0.0
2017-Dec-07 17:00N 49°12' W 123°04'0 0.0
2017-Dec-07 16:30N 49°12' W 123°04'0 0.0
2017-Dec-07 16:00N 49°12' W 123°04'0 0.0
2017-Dec-07 15:30N 49°12' W 123°04'0 0.0
2017-Dec-07 15:00N 49°12' W 123°04'0 0.0
2017-Dec-07 14:30N 49°12' W 123°04'0 0.0
2017-Dec-07 14:00N 49°12' W 123°04'0 0.0
2017-Dec-07 13:30N 49°12' W 123°04'  
Track history (hours):
 
Tides and Currents Weather Stations Pressure Air Temp Water Temp Dewpoint Dewpoint Depression Visibility Wind Speed Wind Dir Waves Ship Positions

Miller Richmond

Last reported at 2017-Dec-17 13:30 UTC. Time now 2017-Dec-17 13:54 UTC.
Position N 49°12' W 123°04'.

Length 20 m; draft 1.5 m.

Type: . MMSI: 316011603.

Date/timePositionNaut miles runAvg speedWind from/ knotsBaromVisibWave heightAir tempDewpointWater temp
2017-Dec-17 13:30N 49°12' W 123°04'0 0.0
2017-Dec-17 13:00N 49°12' W 123°04'0 0.0
2017-Dec-17 12:30N 49°12' W 123°04'0 0.0
2017-Dec-17 12:00N 49°12' W 123°04'0 0.0
2017-Dec-17 11:30N 49°12' W 123°04'0 0.0
2017-Dec-17 11:00N 49°12' W 123°04'0 0.0
2017-Dec-17 10:30N 49°12' W 123°04'0 0.0
2017-Dec-17 10:00N 49°12' W 123°04'0 0.0
2017-Dec-17 09:30N 49°12' W 123°04'0 0.0
2017-Dec-17 09:00N 49°12' W 123°04'0 0.0
2017-Dec-17 08:30N 49°12' W 123°04'0 0.0
2017-Dec-17 08:00N 49°12' W 123°04'0 0.0
2017-Dec-17 07:30N 49°12' W 123°04'0 0.0
2017-Dec-17 07:00N 49°12' W 123°04'0 0.0
2017-Dec-17 06:30N 49°12' W 123°04'0 0.0
2017-Dec-17 06:00N 49°12' W 123°04'0 0.0
2017-Dec-17 05:30N 49°12' W 123°04'0 0.0
2017-Dec-17 05:00N 49°12' W 123°04'0 0.0
2017-Dec-17 04:30N 49°12' W 123°04'0 0.0
2017-Dec-17 04:00N 49°12' W 123°04'0 0.0
2017-Dec-17 03:30N 49°12' W 123°04'0 0.0
2017-Dec-17 03:00N 49°12' W 123°04'0 0.0
2017-Dec-17 02:30N 49°12' W 123°04'0 0.0
2017-Dec-17 02:00N 49°12' W 123°04'0 0.0
2017-Dec-17 01:30N 49°12' W 123°04'0 0.0
2017-Dec-17 01:00N 49°12' W 123°04'0 0.0
2017-Dec-17 00:30N 49°12' W 123°04'0 0.0
2017-Dec-17 00:00N 49°12' W 123°04'0 0.0
2017-Dec-16 23:30N 49°12' W 123°04'0 0.0
2017-Dec-16 23:00N 49°12' W 123°04'0 0.0
2017-Dec-16 22:30N 49°12' W 123°04'0 0.0
2017-Dec-16 22:00N 49°12' W 123°04'0 0.0
2017-Dec-16 21:30N 49°12' W 123°04'0 0.0
2017-Dec-16 19:06N 49°12' W 123°04'0 0.0
2017-Dec-16 19:00N 49°12' W 123°04'0 0.0
2017-Dec-16 18:30N 49°12' W 123°04'0 0.0
2017-Dec-16 18:00N 49°12' W 123°04'0 0.0
2017-Dec-16 17:30N 49°12' W 123°04'0 0.0
2017-Dec-16 17:00N 49°12' W 123°04'0 0.0
2017-Dec-16 16:30N 49°12' W 123°04'0 0.0
2017-Dec-16 16:00N 49°12' W 123°04'0 0.0
2017-Dec-16 15:30N 49°12' W 123°04'0 0.0
2017-Dec-16 15:00N 49°12' W 123°04'0 0.0
2017-Dec-16 14:30N 49°12' W 123°04'0 0.0
2017-Dec-16 14:00N 49°12' W 123°04'0 0.0
2017-Dec-16 13:30N 49°12' W 123°04'0 0.0
2017-Dec-16 13:00N 49°12' W 123°04'0 0.0
2017-Dec-16 12:30N 49°12' W 123°04'0 0.0
2017-Dec-16 12:00N 49°12' W 123°04'0 0.0
2017-Dec-16 11:30N 49°12' W 123°04'0 0.0
2017-Dec-16 11:00N 49°12' W 123°04'0 0.0
2017-Dec-16 10:30N 49°12' W 123°04'0 0.0
2017-Dec-16 10:00N 49°12' W 123°04'0 0.0
2017-Dec-16 09:30N 49°12' W 123°04'0 0.0
2017-Dec-16 09:00N 49°12' W 123°04'0 0.0
2017-Dec-16 08:30N 49°12' W 123°04'0 0.0
2017-Dec-16 08:00N 49°12' W 123°04'0 0.0
2017-Dec-16 07:30N 49°12' W 123°04'0 0.0
2017-Dec-16 07:00N 49°12' W 123°04'0 0.0
2017-Dec-16 06:30N 49°12' W 123°04'0 0.0
2017-Dec-16 06:00N 49°12' W 123°04'0 0.0
2017-Dec-16 05:30N 49°12' W 123°04'0 0.2
2017-Dec-16 05:00N 49°12' W 123°04'0 0.0
2017-Dec-16 04:30N 49°12' W 123°04'1 2.2
2017-Dec-16 04:00N 49°12' W 123°06'3 5.3
2017-Dec-16 03:30N 49°13' W 123°09'3 6.0
2017-Dec-16 03:00N 49°14' W 123°14'3 6.5
2017-Dec-16 02:30N 49°16' W 123°18'4 7.4
2017-Dec-16 02:00N 49°17' W 123°23'4 8.4
2017-Dec-16 01:30N 49°19' W 123°29'26 9.0
2017-Dec-15 22:33N 49°33' W 124°03'1 8.7
2017-Dec-15 22:29N 49°34' W 124°04'4 8.7
2017-Dec-15 22:00N 49°37' W 124°09'5 8.9
2017-Dec-15 21:28N 49°40' W 124°14'4 8.8
2017-Dec-15 21:00N 49°42' W 124°19'4 8.4
2017-Dec-15 20:30N 49°44' W 124°25'4 8.4
2017-Dec-15 20:00N 49°47' W 124°30'4 8.4
2017-Dec-15 19:30N 49°51' W 124°33'2 3.0
2017-Dec-15 18:59N 49°52' W 124°33'0 0.0
2017-Dec-15 18:30N 49°52' W 124°33'0 0.0
2017-Dec-15 17:59N 49°52' W 124°33'0 0.0
2017-Dec-15 17:30N 49°52' W 124°33'0 0.0
2017-Dec-15 17:00N 49°52' W 124°33'0 0.0
2017-Dec-15 16:30N 49°52' W 124°33'0 0.0
2017-Dec-15 16:00N 49°52' W 124°33'0 0.0
2017-Dec-15 15:30N 49°52' W 124°33'0 0.0
2017-Dec-15 15:00N 49°52' W 124°33'0 0.0
2017-Dec-15 14:27N 49°52' W 124°33'0 0.0
2017-Dec-15 14:00N 49°52' W 124°33'0 0.0
2017-Dec-15 13:30N 49°52' W 124°33'0 0.1
2017-Dec-15 13:00N 49°52' W 124°33'2 4.5
2017-Dec-15 12:30N 49°50' W 124°33'3 5.5
2017-Dec-15 12:00N 49°47' W 124°31'3 6.6
2017-Dec-15 11:30N 49°46' W 124°27'3 6.6
2017-Dec-15 11:00N 49°44' W 124°22'4 7.1
2017-Dec-15 10:29N 49°42' W 124°18'4 7.4
2017-Dec-15 10:00N 49°39' W 124°14'4 7.8
2017-Dec-15 09:30N 49°36' W 124°11'4 7.8
2017-Dec-15 09:00N 49°33' W 124°07'4 7.7
2017-Dec-15 08:26N 49°30' W 124°03'14 7.8
2017-Dec-15 06:39N 49°23' W 123°43'1 7.8
2017-Dec-15 06:30N 49°23' W 123°42'4 7.7
2017-Dec-15 05:59N 49°21' W 123°36'4 8.0
2017-Dec-15 05:30N 49°19' W 123°31'4 8.1
2017-Dec-15 05:00N 49°18' W 123°25'4 8.1
2017-Dec-15 04:30N 49°16' W 123°19'4 8.9
2017-Dec-15 04:00N 49°14' W 123°14'7 4.4
2017-Dec-15 02:30N 49°12' W 123°04'0 0.0
2017-Dec-15 01:00N 49°12' W 123°04'0 0.0
2017-Dec-15 00:30N 49°12' W 123°04'0 0.0
2017-Dec-14 18:30N 49°12' W 123°04'0 0.0
2017-Dec-14 18:00N 49°12' W 123°04'0 0.0
2017-Dec-14 17:30N 49°12' W 123°04'2 4.0
2017-Dec-14 17:00N 49°12' W 123°07'3 6.7
2017-Dec-14 16:30N 49°13' W 123°12'4 7.4
2017-Dec-14 16:00N 49°15' W 123°16'8 8.2
2017-Dec-14 15:00N 49°20' W 123°26'4 8.5
2017-Dec-14 14:29N 49°25' W 123°26'4 8.3
2017-Dec-14 14:00N 49°28' W 123°28'2 3.5
2017-Dec-14 13:25N 49°30' W 123°30'0 0.0
2017-Dec-14 13:00N 49°30' W 123°30'0 0.0
2017-Dec-14 12:30N 49°30' W 123°30'0 0.0
2017-Dec-14 11:59N 49°30' W 123°30'0 0.0
2017-Dec-14 11:30N 49°30' W 123°30'0 0.0
2017-Dec-14 11:00N 49°30' W 123°30'2 4.7
2017-Dec-14 10:30N 49°28' W 123°28'4 7.9
2017-Dec-14 10:00N 49°24' W 123°26'4 8.1
2017-Dec-14 09:30N 49°20' W 123°26'4 8.9
2017-Dec-14 09:00N 49°18' W 123°21'4 8.2
2017-Dec-14 08:30N 49°15' W 123°16'4 7.2
2017-Dec-14 08:00N 49°13' W 123°11'4 7.2
2017-Dec-14 07:30N 49°12' W 123°06'2 3.0
2017-Dec-14 07:00N 49°12' W 123°04'0 0.0
2017-Dec-14 06:30N 49°12' W 123°04'0 0.1
2017-Dec-14 06:00N 49°12' W 123°04'0 0.1
2017-Dec-14 05:30N 49°12' W 123°04'0 0.0
2017-Dec-14 05:00N 49°12' W 123°04'0 0.0
2017-Dec-14 04:30N 49°12' W 123°04'0 0.0
2017-Dec-14 04:00N 49°12' W 123°04'0 0.0
2017-Dec-14 03:30N 49°12' W 123°04'2 3.2
2017-Dec-14 03:00N 49°12' W 123°06'2 5.1
2017-Dec-14 02:30N 49°13' W 123°10'3 5.8
2017-Dec-14 02:00N 49°14' W 123°14'3 5.9
2017-Dec-14 01:30N 49°16' W 123°18'4 7.8
2017-Dec-14 01:00N 49°17' W 123°23'4 8.7
2017-Dec-14 00:30N 49°18' W 123°30'5 9.1
2017-Dec-13 23:56N 49°21' W 123°37'4 9.2
2017-Dec-13 23:30N 49°22' W 123°42'17 8.8
2017-Dec-13 21:34N 49°31' W 124°05'1 9.3
2017-Dec-13 21:29N 49°31' W 124°06'4 9.2
2017-Dec-13 21:00N 49°35' W 124°10'4 8.9
2017-Dec-13 20:30N 49°38' W 124°14'4 8.7
2017-Dec-13 20:00N 49°41' W 124°19'4 8.3
2017-Dec-13 19:30N 49°44' W 124°24'4 8.4
2017-Dec-13 19:00N 49°47' W 124°29'4 8.1
2017-Dec-13 18:30N 49°50' W 124°32'2 3.1
2017-Dec-13 17:46N 49°52' W 124°33'0 0.0
2017-Dec-13 17:30N 49°52' W 124°33'0 0.0
2017-Dec-13 17:00N 49°52' W 124°33'0 0.0
2017-Dec-13 16:30N 49°52' W 124°33'0 0.0
2017-Dec-13 16:00N 49°52' W 124°33'0 0.0
2017-Dec-13 15:30N 49°52' W 124°33'0 0.0
2017-Dec-13 14:10N 49°52' W 124°33'0 0.0
2017-Dec-13 13:55N 49°52' W 124°33'2 3.9
2017-Dec-13 13:30N 49°50' W 124°33'4 8.1
2017-Dec-13 13:00N 49°47' W 124°30'4 8.4
2017-Dec-13 12:30N 49°45' W 124°24'4 8.4
2017-Dec-13 12:00N 49°43' W 124°19'4 8.1
2017-Dec-13 11:30N 49°40' W 124°14'4 8.5
2017-Dec-13 11:00N 49°36' W 124°11'4 8.3
2017-Dec-13 10:30N 49°33' W 124°07'20 8.3
2017-Dec-13 08:07N 49°22' W 123°40'1 8.4
2017-Dec-13 07:59N 49°22' W 123°39'4 8.4
2017-Dec-13 07:29N 49°20' W 123°33'4 8.5
2017-Dec-13 07:00N 49°19' W 123°27'4 8.6
2017-Dec-13 06:29N 49°17' W 123°21'4 7.9
2017-Dec-13 05:59N 49°15' W 123°16'3 7.1
2017-Dec-13 05:31N 49°13' W 123°12'4 8.2
2017-Dec-13 05:00N 49°12' W 123°05'1 2.1
2017-Dec-13 04:30N 49°12' W 123°04'0 0.4
2017-Dec-13 04:00N 49°12' W 123°04'0 0.5
2017-Dec-13 03:30N 49°12' W 123°04'3 5.7
2017-Dec-13 03:00N 49°12' W 123°08'3 5.4
2017-Dec-13 02:30N 49°13' W 123°12'3 5.4
2017-Dec-13 02:00N 49°15' W 123°15'3 5.3
2017-Dec-13 01:30N 49°16' W 123°19'4 8.6
2017-Dec-13 01:00N 49°18' W 123°25'4 8.7
2017-Dec-13 00:30N 49°19' W 123°31'5 8.8
2017-Dec-12 23:59N 49°21' W 123°38'19 8.4
2017-Dec-12 21:41N 49°31' W 124°03'2 8.5
2017-Dec-12 21:27N 49°32' W 124°06'5 8.3
2017-Dec-12 20:54N 49°36' W 124°10'3 8.3
2017-Dec-12 20:30N 49°38' W 124°13'4 8.4
2017-Dec-12 20:00N 49°41' W 124°18'4 8.1
2017-Dec-12 19:30N 49°44' W 124°23'4 7.7
2017-Dec-12 19:00N 49°46' W 124°28'4 7.9
2017-Dec-12 18:30N 49°49' W 124°33'4 7.1
2017-Dec-12 18:00N 49°52' W 124°33'0 0.0
2017-Dec-12 17:30N 49°52' W 124°33'0 0.0
2017-Dec-12 17:00N 49°52' W 124°33'0 0.0
2017-Dec-12 16:30N 49°52' W 124°33'0 0.0
2017-Dec-12 16:00N 49°52' W 124°33'0 0.0
2017-Dec-12 15:30N 49°52' W 124°33'0 0.0
2017-Dec-12 15:00N 49°52' W 124°33'0 0.0
2017-Dec-12 14:30N 49°52' W 124°33'0 0.0
2017-Dec-12 14:00N 49°52' W 124°33'2 4.3
2017-Dec-12 13:30N 49°50' W 124°33'4 7.5
2017-Dec-12 13:00N 49°47' W 124°29'4 8.4
2017-Dec-12 12:30N 49°45' W 124°24'4 8.5
2017-Dec-12 12:00N 49°42' W 124°19'4 8.1
2017-Dec-12 11:30N 49°39' W 124°15'4 8.3
2017-Dec-12 11:00N 49°36' W 124°10'4 8.4
2017-Dec-12 10:29N 49°33' W 124°06'16 8.2
2017-Dec-12 08:31N 49°24' W 123°45'0 8.4
2017-Dec-12 08:28N 49°23' W 123°45'4 8.1
2017-Dec-12 08:00N 49°22' W 123°39'4 8.2
2017-Dec-12 07:30N 49°20' W 123°33'4 8.4
2017-Dec-12 07:00N 49°18' W 123°28'4 8.6
2017-Dec-12 06:30N 49°17' W 123°22'4 7.9
2017-Dec-12 06:00N 49°15' W 123°16'4 7.3
2017-Dec-12 05:30N 49°13' W 123°11'4 7.1
2017-Dec-12 05:00N 49°12' W 123°06'2 3.1
2017-Dec-12 04:30N 49°12' W 123°04'0 0.0
2017-Dec-12 04:00N 49°12' W 123°04'0 0.3
2017-Dec-12 03:30N 49°12' W 123°04'0 0.3
2017-Dec-12 03:00N 49°12' W 123°04'0 0.0
2017-Dec-12 02:30N 49°12' W 123°04'0 0.2
2017-Dec-12 02:00N 49°12' W 123°04'0 0.0
2017-Dec-12 01:30N 49°12' W 123°04'0 0.0
2017-Dec-12 01:00N 49°12' W 123°04'0 0.0
2017-Dec-12 00:30N 49°12' W 123°04'0 0.0
2017-Dec-12 00:00N 49°12' W 123°04'0 0.0
2017-Dec-11 23:30N 49°12' W 123°04'0 0.0
2017-Dec-11 23:00N 49°12' W 123°04'0 0.0
2017-Dec-11 22:30N 49°12' W 123°04'0 0.0
2017-Dec-11 22:00N 49°12' W 123°04'0 0.0
2017-Dec-11 21:30N 49°12' W 123°04'0 0.0
2017-Dec-11 21:00N 49°12' W 123°04'0 0.0
2017-Dec-11 20:30N 49°12' W 123°04'0 0.0
2017-Dec-11 20:00N 49°12' W 123°04'0 0.0
2017-Dec-11 19:30N 49°12' W 123°04'0 0.0
2017-Dec-11 19:00N 49°12' W 123°04'0 0.0
2017-Dec-11 18:30N 49°12' W 123°04'0 0.0
2017-Dec-11 18:00N 49°12' W 123°04'0 0.0
2017-Dec-11 17:30N 49°12' W 123°04'0 0.0
2017-Dec-11 17:00N 49°12' W 123°04'0 0.0
2017-Dec-11 16:30N 49°12' W 123°04'0 0.0
2017-Dec-11 16:00N 49°12' W 123°04'0 0.0
2017-Dec-11 15:30N 49°12' W 123°04'0 0.0
2017-Dec-11 15:00N 49°12' W 123°04'0 0.0
2017-Dec-11 14:30N 49°12' W 123°04'0 0.0
2017-Dec-11 14:00N 49°12' W 123°04'0 0.0
2017-Dec-11 13:30N 49°12' W 123°04'0 0.0
2017-Dec-11 13:00N 49°12' W 123°04'0 0.0
2017-Dec-11 12:30N 49°12' W 123°04'0 0.0
2017-Dec-11 12:00N 49°12' W 123°04'0 0.0
2017-Dec-11 11:30N 49°12' W 123°04'0 0.0
2017-Dec-11 11:00N 49°12' W 123°04'0 0.0
2017-Dec-11 10:30N 49°12' W 123°04'0 0.0
2017-Dec-11 10:00N 49°12' W 123°04'0 0.0
2017-Dec-11 09:30N 49°12' W 123°04'0 0.0
2017-Dec-11 09:00N 49°12' W 123°04'0 0.0
2017-Dec-11 08:30N 49°12' W 123°04'0 0.0
2017-Dec-11 08:00N 49°12' W 123°04'0 0.0
2017-Dec-11 07:30N 49°12' W 123°04'0 0.0
2017-Dec-11 07:00N 49°12' W 123°04'0 0.0
2017-Dec-11 06:30N 49°12' W 123°04'0 0.0
2017-Dec-11 06:00N 49°12' W 123°04'0 0.0
2017-Dec-11 05:30N 49°12' W 123°04'0 0.0
2017-Dec-11 05:00N 49°12' W 123°04'0 0.0
2017-Dec-11 04:30N 49°12' W 123°04'0 0.0
2017-Dec-11 04:00N 49°12' W 123°04'0 0.0
2017-Dec-11 03:30N 49°12' W 123°04'0 0.0
2017-Dec-11 03:00N 49°12' W 123°04'0 0.0
2017-Dec-11 02:30N 49°12' W 123°04'0 0.0
2017-Dec-11 02:00N 49°12' W 123°04'0 0.0
2017-Dec-11 01:30N 49°12' W 123°04'0 0.0
2017-Dec-11 01:00N 49°12' W 123°04'0 0.0
2017-Dec-11 00:30N 49°12' W 123°04'0 0.0
2017-Dec-11 00:00N 49°12' W 123°04'0 0.0
2017-Dec-10 23:30N 49°12' W 123°04'0 0.0
2017-Dec-10 23:00N 49°12' W 123°04'0 0.0
2017-Dec-10 22:30N 49°12' W 123°04'0 0.0
2017-Dec-10 22:00N 49°12' W 123°04'0 0.0
2017-Dec-10 21:30N 49°12' W 123°04'0 0.0
2017-Dec-10 21:00N 49°12' W 123°04'0 0.0
2017-Dec-10 20:30N 49°12' W 123°04'0 0.0
2017-Dec-10 20:00N 49°12' W 123°04'0 0.0
2017-Dec-10 19:30N 49°12' W 123°04'0 0.0
2017-Dec-10 19:00N 49°12' W 123°04'0 0.0
2017-Dec-10 18:30N 49°12' W 123°04'0 0.0
2017-Dec-10 18:00N 49°12' W 123°04'0 0.0
2017-Dec-10 17:30N 49°12' W 123°04'0 0.0
2017-Dec-10 17:00N 49°12' W 123°04'0 0.0
2017-Dec-10 16:30N 49°12' W 123°04'0 0.0
2017-Dec-10 16:00N 49°12' W 123°04'0 0.0
2017-Dec-10 15:30N 49°12' W 123°04'0 0.0
2017-Dec-10 15:00N 49°12' W 123°04'0 0.0
2017-Dec-10 14:30N 49°12' W 123°04'0 0.0
2017-Dec-10 14:00N 49°12' W 123°04'0 0.0
2017-Dec-10 13:30N 49°12' W 123°04'0 0.0
2017-Dec-10 13:00N 49°12' W 123°04'0 0.0
2017-Dec-10 12:30N 49°12' W 123°04'0 0.0
2017-Dec-10 12:00N 49°12' W 123°04'0 0.0
2017-Dec-10 11:30N 49°12' W 123°04'0 0.0
2017-Dec-10 11:00N 49°12' W 123°04'0 0.0
2017-Dec-10 10:30N 49°12' W 123°04'0 0.0
2017-Dec-10 10:00N 49°12' W 123°04'0 0.0
2017-Dec-10 09:30N 49°12' W 123°04'0 0.0
2017-Dec-10 09:00N 49°12' W 123°04'0 0.0
2017-Dec-10 08:30N 49°12' W 123°04'0 0.0
2017-Dec-10 08:00N 49°12' W 123°04'0 0.0
2017-Dec-10 07:30N 49°12' W 123°04'0 0.0
2017-Dec-10 07:00N 49°12' W 123°04'0 0.0
2017-Dec-10 06:30N 49°12' W 123°04'0 0.0
2017-Dec-10 06:00N 49°12' W 123°04'0 0.0
2017-Dec-10 05:30N 49°12' W 123°04'0 0.0
2017-Dec-10 05:00N 49°12' W 123°04'0 0.0
2017-Dec-10 04:30N 49°12' W 123°04'0 0.0
2017-Dec-10 04:00N 49°12' W 123°04'0 0.0
2017-Dec-10 03:30N 49°12' W 123°04'0 0.0
2017-Dec-10 03:00N 49°12' W 123°04'0 0.0
2017-Dec-10 02:30N 49°12' W 123°04'0 0.0
2017-Dec-10 02:00N 49°12' W 123°04'0 0.0
2017-Dec-10 01:30N 49°12' W 123°04'0 0.0
2017-Dec-10 01:00N 49°12' W 123°04'0 0.0
2017-Dec-10 00:30N 49°12' W 123°04'0 0.0
2017-Dec-10 00:00N 49°12' W 123°04'0 0.0
2017-Dec-09 23:30N 49°12' W 123°04'0 0.0
2017-Dec-09 23:00N 49°12' W 123°04'0 0.0
2017-Dec-09 22:30N 49°12' W 123°04'0 0.0
2017-Dec-09 22:00N 49°12' W 123°04'0 0.0
2017-Dec-09 21:30N 49°12' W 123°04'0 0.0
2017-Dec-09 21:00N 49°12' W 123°04'0 0.0
2017-Dec-09 20:30N 49°12' W 123°04'0 0.0
2017-Dec-09 20:00N 49°12' W 123°04'0 0.0
2017-Dec-09 19:30N 49°12' W 123°04'0 0.0
2017-Dec-09 19:00N 49°12' W 123°04'0 0.0
2017-Dec-09 18:30N 49°12' W 123°04'0 0.0
2017-Dec-09 18:00N 49°12' W 123°04'0 0.0
2017-Dec-09 17:30N 49°12' W 123°04'0 0.0
2017-Dec-09 17:00N 49°12' W 123°04'0 0.0
2017-Dec-09 16:30N 49°12' W 123°04'0 0.0
2017-Dec-09 16:00N 49°12' W 123°04'0 0.0
2017-Dec-09 15:30N 49°12' W 123°04'0 0.0
2017-Dec-09 15:00N 49°12' W 123°04'0 0.0
2017-Dec-09 14:30N 49°12' W 123°04'0 0.0
2017-Dec-09 14:00N 49°12' W 123°04'0 0.0
2017-Dec-09 13:30N 49°12' W 123°04'0 0.0
2017-Dec-09 13:00N 49°12' W 123°04'0 0.0
2017-Dec-09 12:30N 49°12' W 123°04'0 0.0
2017-Dec-09 12:00N 49°12' W 123°04'0 0.0
2017-Dec-09 11:30N 49°12' W 123°04'0 0.0
2017-Dec-09 11:00N 49°12' W 123°04'0 0.0
2017-Dec-09 10:30N 49°12' W 123°04'0 0.0
2017-Dec-09 10:00N 49°12' W 123°04'0 0.0
2017-Dec-09 09:30N 49°12' W 123°04'0 0.0
2017-Dec-09 09:00N 49°12' W 123°04'0 0.0
2017-Dec-09 08:30N 49°12' W 123°04'0 0.0
2017-Dec-09 08:00N 49°12' W 123°04'0 0.0
2017-Dec-09 07:30N 49°12' W 123°04'0 0.0
2017-Dec-09 07:00N 49°12' W 123°04'0 0.0
2017-Dec-09 06:30N 49°12' W 123°04'0 0.0
2017-Dec-09 06:00N 49°12' W 123°04'0 0.0
2017-Dec-09 05:30N 49°12' W 123°04'0 0.0
2017-Dec-09 05:00N 49°12' W 123°04'0 0.0
2017-Dec-09 04:30N 49°12' W 123°04'0 0.0
2017-Dec-09 04:00N 49°12' W 123°04'0 0.0
2017-Dec-09 03:30N 49°12' W 123°04'0 0.0
2017-Dec-09 03:00N 49°12' W 123°04'0 0.0
2017-Dec-09 02:30N 49°12' W 123°04'0 0.0
2017-Dec-09 02:00N 49°12' W 123°04'0 0.0
2017-Dec-09 01:30N 49°12' W 123°04'0 0.0
2017-Dec-09 01:00N 49°12' W 123°04'0 0.0
2017-Dec-09 00:30N 49°12' W 123°04'0 0.0
2017-Dec-09 00:00N 49°12' W 123°04'0 0.0
2017-Dec-08 23:30N 49°12' W 123°04'0 0.0
2017-Dec-08 23:00N 49°12' W 123°04'0 0.0
2017-Dec-08 22:30N 49°12' W 123°04'0 0.0
2017-Dec-08 22:00N 49°12' W 123°04'0 0.0
2017-Dec-08 21:30N 49°12' W 123°04'0 0.0
2017-Dec-08 21:00N 49°12' W 123°04'0 0.0
2017-Dec-08 20:30N 49°12' W 123°04'0 0.0
2017-Dec-08 20:00N 49°12' W 123°04'0 0.0
2017-Dec-08 19:30N 49°12' W 123°04'0 0.0
2017-Dec-08 19:00N 49°12' W 123°04'0 0.0
2017-Dec-08 18:30N 49°12' W 123°04'0 0.0
2017-Dec-08 18:00N 49°12' W 123°04'0 0.0
2017-Dec-08 16:52N 49°12' W 123°04'0 0.0
2017-Dec-08 16:30N 49°12' W 123°04'0 0.0
2017-Dec-08 16:00N 49°12' W 123°04'0 0.0
2017-Dec-08 15:30N 49°12' W 123°04'0 0.0
2017-Dec-08 15:00N 49°12' W 123°04'0 0.0
2017-Dec-08 14:30N 49°12' W 123°04'0 0.0
2017-Dec-08 14:00N 49°12' W 123°04'0 0.0
2017-Dec-08 13:30N 49°12' W 123°04'0 0.0
2017-Dec-08 13:00N 49°12' W 123°04'0 0.0
2017-Dec-08 12:30N 49°12' W 123°04'0 0.0
2017-Dec-08 12:00N 49°12' W 123°04'0 0.0
2017-Dec-08 11:30N 49°12' W 123°04'0 0.0
2017-Dec-08 11:00N 49°12' W 123°04'0 0.0
2017-Dec-08 10:30N 49°12' W 123°04'0 0.0
2017-Dec-08 10:00N 49°12' W 123°04'0 0.0
2017-Dec-08 09:30N 49°12' W 123°04'0 0.0
2017-Dec-08 09:00N 49°12' W 123°04'0 0.0
2017-Dec-08 08:30N 49°12' W 123°04'0 0.0
2017-Dec-08 08:00N 49°12' W 123°04'0 0.0
2017-Dec-08 07:30N 49°12' W 123°04'0 0.0
2017-Dec-08 07:00N 49°12' W 123°04'0 0.0
2017-Dec-08 06:30N 49°12' W 123°04'0 0.0
2017-Dec-08 06:00N 49°12' W 123°04'0 0.0
2017-Dec-08 05:30N 49°12' W 123°04'0 0.0
2017-Dec-08 05:00N 49°12' W 123°04'0 0.0
2017-Dec-08 04:30N 49°12' W 123°04'0 0.0
2017-Dec-08 04:00N 49°12' W 123°04'0 0.0
2017-Dec-08 03:30N 49°12' W 123°04'0 0.0
2017-Dec-08 03:00N 49°12' W 123°04'0 0.0
2017-Dec-08 02:30N 49°12' W 123°04'0 0.0
2017-Dec-08 02:00N 49°12' W 123°04'0 0.0
2017-Dec-08 01:30N 49°12' W 123°04'0 0.0
2017-Dec-08 01:00N 49°12' W 123°04'0 0.0
2017-Dec-08 00:30N 49°12' W 123°04'0 0.0
2017-Dec-08 00:00N 49°12' W 123°04'0 0.0
2017-Dec-07 23:30N 49°12' W 123°04'0 0.0
2017-Dec-07 23:00N 49°12' W 123°04'0 0.0
2017-Dec-07 22:30N 49°12' W 123°04'0 0.0
2017-Dec-07 22:00N 49°12' W 123°04'0 0.0
2017-Dec-07 21:30N 49°12' W 123°04'0 0.0
2017-Dec-07 21:00N 49°12' W 123°04'0 0.0
2017-Dec-07 20:30N 49°12' W 123°04'0 0.0
2017-Dec-07 20:00N 49°12' W 123°04'0 0.0
2017-Dec-07 19:30N 49°12' W 123°04'0 0.0
2017-Dec-07 19:00N 49°12' W 123°04'0 0.0
2017-Dec-07 18:30N 49°12' W 123°04'0 0.0
2017-Dec-07 18:00N 49°12' W 123°04'0 0.0
2017-Dec-07 17:30N 49°12' W 123°04'0 0.0
2017-Dec-07 17:00N 49°12' W 123°04'0 0.0
2017-Dec-07 16:30N 49°12' W 123°04'0 0.0
2017-Dec-07 16:00N 49°12' W 123°04'0 0.0
2017-Dec-07 15:30N 49°12' W 123°04'0 0.0
2017-Dec-07 15:00N 49°12' W 123°04'0 0.0
2017-Dec-07 14:30N 49°12' W 123°04'0 0.0
2017-Dec-07 14:00N 49°12' W 123°04'0 0.0
2017-Dec-07 13:30N 49°12' W 123°04'  

Dump ship's entire track history